WetterOnline ( https://www.wetteronline.de )

Wetter aktuell Grävenwiesbach

Aktuelles Wetter: Gießen (195m)

6-stündlich | Neueste Meldungen
Ortszeit Temperatur Wetter
Fr, 07.10. 20:00 10.7° C bewölkt
Fr, 07.10. 14:00 15.9° C wolkenlos
Fr, 07.10. 8:00 2.4° C Nebel
Fr, 07.10. 2:00 5.2° C wolkenlos
Do, 06.10. 20:00 10.5° C wolkenlos
Do, 06.10. 14:00 15.6° C wolkenlos
Do, 06.10. 8:00 11.7° C leicht bewölkt
Do, 06.10. 2:00 14.7° C leicht bewölkt
Ortszeit Temperatur Wetter
Fr, 07.10. 20:00 10.7° C bewölkt
Fr, 07.10. 19:50 10.7° C bewölkt
Fr, 07.10. 19:40 11.0° C bedeckt
Fr, 07.10. 19:30 11.7° C bewölkt
Fr, 07.10. 19:20 11.7° C bewölkt
Fr, 07.10. 19:10 12.8° C bedeckt
Fr, 07.10. 19:00 14.2° C bewölkt
Fr, 07.10. 18:30 15.4° C bedeckt
Fr, 07.10. 18:00 16.1° C wolkig
Fr, 07.10. 17:30 16.9° C bewölkt
Ortszeit Relative Feuchte Sichtweite
Fr, 07.10. 20:00 90% 35 km
Fr, 07.10. 14:00 59% 65 km
Fr, 07.10. 8:00 99% 100 m
Fr, 07.10. 2:00 98% 23 km
Do, 06.10. 20:00 77% 45 km
Do, 06.10. 14:00 54% 40 km
Do, 06.10. 8:00 78% 40 km
Do, 06.10. 2:00 84% 40 km
Ortszeit Relative Feuchte Sichtweite
Fr, 07.10. 20:00 90% 35 km
Fr, 07.10. 19:50 90% -
Fr, 07.10. 19:40 89% -
Fr, 07.10. 19:30 86% 40 km
Fr, 07.10. 19:20 86% -
Fr, 07.10. 19:10 82% -
Fr, 07.10. 19:00 73% 40 km
Fr, 07.10. 18:30 67% 35 km
Fr, 07.10. 18:00 64% 40 km
Fr, 07.10. 17:30 58% 30 km
Ortszeit Niederschlagsmenge Niederschlagsart
Fr, 07.10. 20:00 0.0 l/m2 in 12 Std. -
Fr, 07.10. 14:00 0.0 l/m2 in 6 Std. -
Fr, 07.10. 8:00 0.0 l/m2 in 12 Std. -
Fr, 07.10. 2:00 0.0 l/m2 in 6 Std. -
Do, 06.10. 20:00 0.0 l/m2 in 12 Std. -
Do, 06.10. 14:00 0.0 l/m2 in 6 Std. -
Do, 06.10. 8:00 0.1 l/m2 in 12 Std. Regen
Do, 06.10. 2:00 0.0 l/m2 in 6 Std. -
Ortszeit Niederschlagsmenge Niederschlagsart
Fr, 07.10. 20:00 0.0 l/m2 in 1 Std. -
Fr, 07.10. 19:50 keine Meldung -
Fr, 07.10. 19:40 keine Meldung -
Fr, 07.10. 19:30 0.0 l/m2 in 1 Std. -
Fr, 07.10. 19:20 keine Meldung -
Fr, 07.10. 19:10 keine Meldung -
Fr, 07.10. 19:00 0.0 l/m2 in 1 Std. -
Fr, 07.10. 18:30 0.0 l/m2 in 1 Std. -
Fr, 07.10. 18:00 0.0 l/m2 in 1 Std. -
Fr, 07.10. 17:30 0.0 l/m2 in 1 Std. -
Ortszeit Stärke Spitze Richtung
km/h Bft. km/h Grad Sektor
Fr, 07.10. 20:00 7 2 22 270° W
Fr, 07.10. 14:00 14 3 22 240° SW
Fr, 07.10. 8:00 4 1 7 40° NO
Fr, 07.10. 2:00 2 1 7 60° NO
Do, 06.10. 20:00 4 1 29 270° W
Do, 06.10. 14:00 14 3 29 210° SW
Do, 06.10. 8:00 14 3 40 240° SW
Do, 06.10. 2:00 14 3 22 230° SW
Ortszeit Stärke Spitze Richtung
km/h Bft. km/h Grad Sektor
Fr, 07.10. 20:00 7 2 7 270° W
Fr, 07.10. 19:50 7 2 - 270° W
Fr, 07.10. 19:40 4 1 - 280° W
Fr, 07.10. 19:30 4 1 7 280° W
Fr, 07.10. 19:20 4 1 - 280° W
Fr, 07.10. 19:10 4 1 - 270° W
Fr, 07.10. 19:00 4 1 7 250° W
Fr, 07.10. 18:30 4 1 7 190° S
Fr, 07.10. 18:00 6 1 13 200° S
Fr, 07.10. 17:30 7 2 14 210° SW
Ortszeit Untergrenze Bedeckung Gattung
total tief tief mittel hoch
Fr, 07.10. 20:00 6600 m 8/8 6/8 - - -
Fr, 07.10. 14:00 - 0/8 0/8 - - -
Fr, 07.10. 8:00 <30 m 8/8 0/8 - - -
Fr, 07.10. 2:00 - 0/8 0/8 - - -
Do, 06.10. 20:00 - 0/8 0/8 - - -
Do, 06.10. 14:00 - 0/8 0/8 - - -
Do, 06.10. 8:00 780 m 3/8 3/8 - - -
Do, 06.10. 2:00 1800 m 4/8 4/8 - - -
Ortszeit Bedeckungsgrad in Achtel und Wolkenuntergrenze
Fr, 07.10. 20:00 6(6600m) 8(9000m) 8(10500m)
Fr, 07.10. 19:50 6(6600m) 8(9000m) 8(10500m)
Fr, 07.10. 19:40 8
Fr, 07.10. 19:30 6(6300m) 8(8700m) 8(10500m)
Fr, 07.10. 19:20 6(6300m) 8(8700m) 8(10500m)
Fr, 07.10. 19:10 8
Fr, 07.10. 19:00 1(5100m) 7(6000m) 8(10500m)
Fr, 07.10. 18:30 8(5100m) 8(6900m) 8(8700m)
Fr, 07.10. 18:00 2(5100m) 8(6900m) 8(9000m)
Fr, 07.10. 17:30 7(6600m) 7(7800m) 7(10500m)
Ortszeit Luftdruck NN (hPa) Tendenz (hPa in 3 Std.)
Fr, 07.10. 20:00 1020 - 1,0
Fr, 07.10. 14:00 1023 - 2,5
Fr, 07.10. 8:00 1028 - 0,9
Fr, 07.10. 2:00 1031 - 0,8
Do, 06.10. 20:00 1031 - 0,1
Do, 06.10. 14:00 1031 + 0,6
Do, 06.10. 8:00 1028 + 3,0
Do, 06.10. 2:00 1021 + 1,0
Ortszeit Luftdruck NN (hPa) Tendenz (hPa in 3 Std.)
Fr, 07.10. 20:00 1020 - 1,0
Fr, 07.10. 19:50 1020 keine Meldung
Fr, 07.10. 19:40 1020 keine Meldung
Fr, 07.10. 19:30 1020 - 1,1
Fr, 07.10. 19:20 1020 keine Meldung
Fr, 07.10. 19:10 1020 keine Meldung
Fr, 07.10. 19:00 1020 - 1,5
Fr, 07.10. 18:30 1020 - 1,9
Fr, 07.10. 18:00 1020 - 2,2
Fr, 07.10. 17:30 1020 - 2,5
Ortszeit Schneehöhe (cm)
Fr, 07.10. 20:00 0
Fr, 07.10. 14:00 0
Fr, 07.10. 8:00 0
Fr, 07.10. 2:00 0
Do, 06.10. 20:00 0
Do, 06.10. 14:00 0
Do, 06.10. 8:00 0
Do, 06.10. 2:00 0
Ortszeit Schneehöhe (cm)
Fr, 07.10. 20:00 0
Fr, 07.10. 19:50 0
Fr, 07.10. 19:40 0
Fr, 07.10. 19:30 0
Fr, 07.10. 19:20 0
Fr, 07.10. 19:10 0
Fr, 07.10. 19:00 0
Fr, 07.10. 18:30 0
Fr, 07.10. 18:00 0
Fr, 07.10. 17:30 0
Link zu dieser Seite / Seite empfehlen

Das Wetter in ...